LAC weather

La Cabana Airport
Cumaral, Meta Department, Colombia

Public forecast

Using degrees Celsius for public forecast. Weather courtesy of forecast.io.

Closest aviation weather report (METAR) to La Cabana Airport

Closest report is Vanguardia Airport, 16.7 nm (30.9 km) WSW. Retrieved 2019/12/14 20:00 UTC (52 minutes ago):

SKVV 142000Z 12004KT 9999 SCT020 SCT090 31/21 A2982

Closest aviation forecast (TAF) to La Cabana Airport

Closest forecast is El Dorado International Airport, 52.3 nm (96.9 km) WNW. Retrieved 2019/12/14 18:30 UTC (2 hours ago):

TAF SKBO 141630Z 1418/1518 28010KT 9999 SCT020 OVC090 TEMPO 1418/1422 8000 RADZ BKN017 BECMG 1501/1503 VRB02KT TEMPO 1504/1507 8000 DZ BKN012 BECMG 1510/1512 05006KT FEW020 SCT090 TX19/1418Z TN09/1511Z